sensor_id;sensor_type;location;lat;lon;timestamp;P1;durP1;ratioP1;P2;durP2;ratioP2
6197;SDS011;3132;42.622;23.328;2022-12-16T00:02:09;16.23;;;14.57;;
6197;SDS011;3132;42.622;23.328;2022-12-16T00:04:34;21.23;;;16.77;;
6197;SDS011;3132;42.622;23.328;2022-12-16T00:07:00;17.17;;;15.57;;
6197;SDS011;3132;42.622;23.328;2022-12-16T00:09:25;17.47;;;15.70;;
6197;SDS011;3132;42.622;23.328;2022-12-16T00:11:50;18.33;;;15.53;;
6197;SDS011;3132;42.622;23.328;2022-12-16T00:14:16;17.53;;;13.87;;
6197;SDS011;3132;42.622;23.328;2022-12-16T00:16:41;16.77;;;14.97;;
6197;SDS011;3132;42.622;23.328;2022-12-16T00:19:06;19.40;;;17.50;;
6197;SDS011;3132;42.622;23.328;2022-12-16T00:21:32;19.60;;;17.10;;
6197;SDS011;3132;42.622;23.328;2022-12-16T00:23:57;17.73;;;15.97;;
6197;SDS011;3132;42.622;23.328;2022-12-16T00:26:22;18.50;;;16.53;;
6197;SDS011;3132;42.622;23.328;2022-12-16T00:28:48;18.40;;;15.77;;
6197;SDS011;3132;42.622;23.328;2022-12-16T00:31:14;16.50;;;15.20;;
6197;SDS011;3132;42.622;23.328;2022-12-16T00:33:39;16.33;;;15.03;;
6197;SDS011;3132;42.622;23.328;2022-12-16T00:36:05;15.53;;;14.17;;
6197;SDS011;3132;42.622;23.328;2022-12-16T00:38:31;16.10;;;14.60;;
6197;SDS011;3132;42.622;23.328;2022-12-16T00:40:56;17.33;;;15.90;;
6197;SDS011;3132;42.622;23.328;2022-12-16T00:43:21;17.57;;;15.93;;
6197;SDS011;3132;42.622;23.328;2022-12-16T00:45:47;17.67;;;15.87;;
6197;SDS011;3132;42.622;23.328;2022-12-16T00:48:13;16.50;;;15.00;;
6197;SDS011;3132;42.622;23.328;2022-12-16T00:50:38;15.47;;;14.27;;
6197;SDS011;3132;42.622;23.328;2022-12-16T00:53:04;15.30;;;14.00;;
6197;SDS011;3132;42.622;23.328;2022-12-16T00:55:30;16.93;;;15.23;;
6197;SDS011;3132;42.622;23.328;2022-12-16T00:57:56;14.27;;;13.27;;
6197;SDS011;3132;42.622;23.328;2022-12-16T01:00:22;20.97;;;16.83;;
6197;SDS011;3132;42.622;23.328;2022-12-16T01:02:48;17.17;;;15.43;;
6197;SDS011;3132;42.622;23.328;2022-12-16T01:05:15;18.60;;;16.80;;
6197;SDS011;3132;42.622;23.328;2022-12-16T01:07:43;16.00;;;14.60;;
6197;SDS011;3132;42.622;23.328;2022-12-16T01:10:08;16.00;;;14.50;;
6197;SDS011;3132;42.622;23.328;2022-12-16T01:12:35;14.93;;;13.53;;
6197;SDS011;3132;42.622;23.328;2022-12-16T01:15:01;14.47;;;13.37;;
6197;SDS011;3132;42.622;23.328;2022-12-16T01:17:28;15.03;;;13.83;;
6197;SDS011;3132;42.622;23.328;2022-12-16T01:19:53;18.70;;;16.80;;
6197;SDS011;3132;42.622;23.328;2022-12-16T01:22:19;20.10;;;17.93;;
6197;SDS011;3132;42.622;23.328;2022-12-16T01:24:46;20.60;;;18.47;;
6197;SDS011;3132;42.622;23.328;2022-12-16T01:27:11;19.03;;;17.17;;
6197;SDS011;3132;42.622;23.328;2022-12-16T01:29:37;20.90;;;18.90;;
6197;SDS011;3132;42.622;23.328;2022-12-16T01:32:02;20.50;;;18.30;;
6197;SDS011;3132;42.622;23.328;2022-12-16T01:34:28;20.50;;;18.23;;
6197;SDS011;3132;42.622;23.328;2022-12-16T01:36:54;22.33;;;19.37;;
6197;SDS011;3132;42.622;23.328;2022-12-16T01:39:19;22.87;;;20.40;;
6197;SDS011;3132;42.622;23.328;2022-12-16T01:41:45;24.43;;;19.83;;
6197;SDS011;3132;42.622;23.328;2022-12-16T01:46:40;48.67;;;24.80;;
6197;SDS011;3132;42.622;23.328;2022-12-16T01:49:08;46.63;;;26.63;;
6197;SDS011;3132;42.622;23.328;2022-12-16T01:51:41;39.47;;;26.60;;
6197;SDS011;3132;42.622;23.328;2022-12-16T01:54:09;38.40;;;26.67;;
6197;SDS011;3132;42.622;23.328;2022-12-16T01:56:36;32.57;;;24.10;;
6197;SDS011;3132;42.622;23.328;2022-12-16T01:59:05;32.97;;;25.23;;
6197;SDS011;3132;42.622;23.328;2022-12-16T02:01:32;35.03;;;25.40;;
6197;SDS011;3132;42.622;23.328;2022-12-16T02:03:57;35.17;;;25.80;;
6197;SDS011;3132;42.622;23.328;2022-12-16T02:06:27;33.83;;;25.53;;
6197;SDS011;3132;42.622;23.328;2022-12-16T02:08:54;33.90;;;24.20;;
6197;SDS011;3132;42.622;23.328;2022-12-16T02:11:28;31.03;;;22.50;;
6197;SDS011;3132;42.622;23.328;2022-12-16T02:16:45;27.30;;;21.00;;
6197;SDS011;3132;42.622;23.328;2022-12-16T02:21:51;28.17;;;21.07;;
6197;SDS011;3132;42.622;23.328;2022-12-16T02:36:02;19.63;;;16.73;;
6197;SDS011;3132;42.622;23.328;2022-12-16T02:44:00;21.37;;;16.97;;
6197;SDS011;3132;42.622;23.328;2022-12-16T02:46:30;19.07;;;17.10;;
6197;SDS011;3132;42.622;23.328;2022-12-16T02:49:06;20.83;;;18.67;;
6197;SDS011;3132;42.622;23.328;2022-12-16T02:51:52;23.73;;;20.67;;
6197;SDS011;3132;42.622;23.328;2022-12-16T02:54:18;21.20;;;19.00;;
6197;SDS011;3132;42.622;23.328;2022-12-16T02:57:07;22.40;;;19.97;;
6197;SDS011;3132;42.622;23.328;2022-12-16T02:59:42;26.63;;;19.80;;
6197;SDS011;3132;42.622;23.328;2022-12-16T03:02:21;28.00;;;21.43;;
6197;SDS011;3132;42.622;23.328;2022-12-16T03:04:56;25.80;;;21.50;;
6197;SDS011;3132;42.622;23.328;2022-12-16T03:07:30;30.80;;;23.50;;
6197;SDS011;3132;42.622;23.328;2022-12-16T03:09:58;28.07;;;21.93;;
6197;SDS011;3132;42.622;23.328;2022-12-16T03:12:25;21.13;;;18.93;;
6197;SDS011;3132;42.622;23.328;2022-12-16T03:14:52;18.27;;;16.37;;
6197;SDS011;3132;42.622;23.328;2022-12-16T03:17:19;18.63;;;16.77;;
6197;SDS011;3132;42.622;23.328;2022-12-16T03:19:52;18.67;;;16.73;;
6197;SDS011;3132;42.622;23.328;2022-12-16T03:22:27;15.70;;;14.10;;
6197;SDS011;3132;42.622;23.328;2022-12-16T03:24:58;17.37;;;15.53;;
6197;SDS011;3132;42.622;23.328;2022-12-16T03:27:24;16.33;;;14.80;;
6197;SDS011;3132;42.622;23.328;2022-12-16T03:30:46;16.40;;;15.00;;
6197;SDS011;3132;42.622;23.328;2022-12-16T03:33:09;23.33;;;18.60;;
6197;SDS011;3132;42.622;23.328;2022-12-16T03:35:44;18.63;;;16.70;;
6197;SDS011;3132;42.622;23.328;2022-12-16T03:38:14;19.70;;;17.70;;
6197;SDS011;3132;42.622;23.328;2022-12-16T03:40:41;22.10;;;19.73;;
6197;SDS011;3132;42.622;23.328;2022-12-16T03:43:09;20.50;;;18.30;;
6197;SDS011;3132;42.622;23.328;2022-12-16T03:45:39;20.40;;;18.00;;
6197;SDS011;3132;42.622;23.328;2022-12-16T03:48:07;19.23;;;17.43;;
6197;SDS011;3132;42.622;23.328;2022-12-16T03:50:34;22.07;;;19.77;;
6197;SDS011;3132;42.622;23.328;2022-12-16T03:53:01;26.60;;;20.53;;
6197;SDS011;3132;42.622;23.328;2022-12-16T03:55:27;29.20;;;21.40;;
6197;SDS011;3132;42.622;23.328;2022-12-16T03:57:53;45.03;;;24.67;;
6197;SDS011;3132;42.622;23.328;2022-12-16T04:00:18;29.37;;;22.10;;
6197;SDS011;3132;42.622;23.328;2022-12-16T04:02:45;34.43;;;24.43;;
6197;SDS011;3132;42.622;23.328;2022-12-16T04:05:11;38.80;;;23.97;;
6197;SDS011;3132;42.622;23.328;2022-12-16T04:07:36;76.00;;;24.47;;
6197;SDS011;3132;42.622;23.328;2022-12-16T04:10:02;83.43;;;26.37;;
6197;SDS011;3132;42.622;23.328;2022-12-16T04:12:28;161.93;;;27.97;;
6197;SDS011;3132;42.622;23.328;2022-12-16T04:15:12;68.47;;;23.90;;
6197;SDS011;3132;42.622;23.328;2022-12-16T04:17:56;50.27;;;25.67;;
6197;SDS011;3132;42.622;23.328;2022-12-16T04:20:41;49.77;;;23.97;;
6197;SDS011;3132;42.622;23.328;2022-12-16T04:23:28;49.07;;;24.40;;
6197;SDS011;3132;42.622;23.328;2022-12-16T04:26:16;67.53;;;25.13;;
6197;SDS011;3132;42.622;23.328;2022-12-16T04:28:41;33.00;;;23.57;;
6197;SDS011;3132;42.622;23.328;2022-12-16T04:31:06;30.60;;;22.67;;
6197;SDS011;3132;42.622;23.328;2022-12-16T04:33:32;27.53;;;22.27;;
6197;SDS011;3132;42.622;23.328;2022-12-16T04:36:16;26.77;;;22.27;;
6197;SDS011;3132;42.622;23.328;2022-12-16T04:39:01;21.37;;;19.20;;
6197;SDS011;3132;42.622;23.328;2022-12-16T04:41:45;21.40;;;19.20;;
6197;SDS011;3132;42.622;23.328;2022-12-16T04:44:28;20.90;;;18.53;;
6197;SDS011;3132;42.622;23.328;2022-12-16T04:47:13;22.80;;;20.40;;
6197;SDS011;3132;42.622;23.328;2022-12-16T04:49:56;19.07;;;17.20;;
6197;SDS011;3132;42.622;23.328;2022-12-16T04:52:40;19.93;;;18.07;;
6197;SDS011;3132;42.622;23.328;2022-12-16T04:55:24;21.33;;;17.80;;
6197;SDS011;3132;42.622;23.328;2022-12-16T04:58:08;19.40;;;17.20;;
6197;SDS011;3132;42.622;23.328;2022-12-16T05:00:52;19.77;;;17.33;;
6197;SDS011;3132;42.622;23.328;2022-12-16T05:03:36;23.37;;;17.53;;
6197;SDS011;3132;42.622;23.328;2022-12-16T05:06:20;22.37;;;16.93;;
6197;SDS011;3132;42.622;23.328;2022-12-16T05:09:04;22.17;;;19.73;;
6197;SDS011;3132;42.622;23.328;2022-12-16T05:12:03;23.50;;;19.10;;
6197;SDS011;3132;42.622;23.328;2022-12-16T05:14:47;32.73;;;21.27;;
6197;SDS011;3132;42.622;23.328;2022-12-16T05:17:31;76.47;;;23.90;;
6197;SDS011;3132;42.622;23.328;2022-12-16T05:20:15;39.50;;;22.43;;
6197;SDS011;3132;42.622;23.328;2022-12-16T05:22:59;59.30;;;23.23;;
6197;SDS011;3132;42.622;23.328;2022-12-16T05:25:47;26.70;;;20.67;;
6197;SDS011;3132;42.622;23.328;2022-12-16T05:28:31;26.93;;;20.50;;
6197;SDS011;3132;42.622;23.328;2022-12-16T05:31:15;26.07;;;19.63;;
6197;SDS011;3132;42.622;23.328;2022-12-16T05:33:59;30.93;;;21.20;;
6197;SDS011;3132;42.622;23.328;2022-12-16T05:36:43;37.93;;;23.63;;
6197;SDS011;3132;42.622;23.328;2022-12-16T05:39:27;63.37;;;23.93;;
6197;SDS011;3132;42.622;23.328;2022-12-16T05:42:11;44.03;;;24.13;;
6197;SDS011;3132;42.622;23.328;2022-12-16T05:44:55;63.33;;;24.20;;
6197;SDS011;3132;42.622;23.328;2022-12-16T05:47:39;53.87;;;23.17;;
6197;SDS011;3132;42.622;23.328;2022-12-16T05:50:23;122.53;;;26.03;;
6197;SDS011;3132;42.622;23.328;2022-12-16T05:53:07;47.57;;;23.83;;
6197;SDS011;3132;42.622;23.328;2022-12-16T05:55:52;71.47;;;24.43;;
6197;SDS011;3132;42.622;23.328;2022-12-16T05:58:37;75.33;;;23.27;;
6197;SDS011;3132;42.622;23.328;2022-12-16T06:01:20;169.63;;;25.03;;
6197;SDS011;3132;42.622;23.328;2022-12-16T06:04:05;79.27;;;24.37;;
6197;SDS011;3132;42.622;23.328;2022-12-16T06:06:49;80.63;;;24.63;;
6197;SDS011;3132;42.622;23.328;2022-12-16T06:09:33;129.53;;;24.80;;
6197;SDS011;3132;42.622;23.328;2022-12-16T06:12:17;115.47;;;27.27;;
6197;SDS011;3132;42.622;23.328;2022-12-16T06:15:01;138.43;;;26.23;;
6197;SDS011;3132;42.622;23.328;2022-12-16T06:17:46;123.63;;;27.17;;
6197;SDS011;3132;42.622;23.328;2022-12-16T06:20:31;114.40;;;27.60;;
6197;SDS011;3132;42.622;23.328;2022-12-16T06:23:16;103.97;;;27.53;;
6197;SDS011;3132;42.622;23.328;2022-12-16T06:26:00;94.23;;;27.00;;
6197;SDS011;3132;42.622;23.328;2022-12-16T06:28:44;108.17;;;27.20;;
6197;SDS011;3132;42.622;23.328;2022-12-16T06:31:28;60.33;;;27.60;;
6197;SDS011;3132;42.622;23.328;2022-12-16T06:34:11;68.30;;;27.10;;
6197;SDS011;3132;42.622;23.328;2022-12-16T06:36:56;47.27;;;25.10;;
6197;SDS011;3132;42.622;23.328;2022-12-16T06:39:39;55.97;;;25.83;;
6197;SDS011;3132;42.622;23.328;2022-12-16T06:42:23;67.20;;;25.93;;
6197;SDS011;3132;42.622;23.328;2022-12-16T06:45:08;51.37;;;24.23;;
6197;SDS011;3132;42.622;23.328;2022-12-16T06:47:52;49.30;;;25.10;;
6197;SDS011;3132;42.622;23.328;2022-12-16T06:50:35;40.30;;;24.77;;
6197;SDS011;3132;42.622;23.328;2022-12-16T06:53:19;51.33;;;25.23;;
6197;SDS011;3132;42.622;23.328;2022-12-16T06:56:03;81.20;;;27.00;;
6197;SDS011;3132;42.622;23.328;2022-12-16T06:58:48;47.73;;;25.93;;
6197;SDS011;3132;42.622;23.328;2022-12-16T07:01:32;52.53;;;25.70;;
6197;SDS011;3132;42.622;23.328;2022-12-16T07:04:15;52.93;;;27.27;;
6197;SDS011;3132;42.622;23.328;2022-12-16T07:06:59;57.50;;;26.20;;
6197;SDS011;3132;42.622;23.328;2022-12-16T07:09:43;62.70;;;25.40;;
6197;SDS011;3132;42.622;23.328;2022-12-16T07:12:27;50.00;;;25.43;;
6197;SDS011;3132;42.622;23.328;2022-12-16T07:15:11;47.30;;;26.23;;
6197;SDS011;3132;42.622;23.328;2022-12-16T07:17:55;63.07;;;26.90;;
6197;SDS011;3132;42.622;23.328;2022-12-16T07:20:39;48.57;;;25.70;;
6197;SDS011;3132;42.622;23.328;2022-12-16T07:23:22;69.00;;;25.77;;
6197;SDS011;3132;42.622;23.328;2022-12-16T07:26:07;54.93;;;25.37;;
6197;SDS011;3132;42.622;23.328;2022-12-16T07:28:51;77.13;;;27.57;;
6197;SDS011;3132;42.622;23.328;2022-12-16T07:31:35;48.47;;;25.00;;
6197;SDS011;3132;42.622;23.328;2022-12-16T07:34:18;69.53;;;26.40;;
6197;SDS011;3132;42.622;23.328;2022-12-16T07:37:03;47.13;;;26.93;;
6197;SDS011;3132;42.622;23.328;2022-12-16T07:39:47;50.23;;;26.43;;
6197;SDS011;3132;42.622;23.328;2022-12-16T07:42:31;55.53;;;27.47;;
6197;SDS011;3132;42.622;23.328;2022-12-16T07:45:14;52.63;;;32.03;;
6197;SDS011;3132;42.622;23.328;2022-12-16T07:47:58;39.23;;;26.83;;
6197;SDS011;3132;42.622;23.328;2022-12-16T07:50:42;38.50;;;26.80;;
6197;SDS011;3132;42.622;23.328;2022-12-16T07:53:26;48.10;;;26.67;;
6197;SDS011;3132;42.622;23.328;2022-12-16T07:56:10;41.07;;;26.47;;
6197;SDS011;3132;42.622;23.328;2022-12-16T07:58:55;44.37;;;27.57;;
6197;SDS011;3132;42.622;23.328;2022-12-16T08:01:39;264.33;;;33.77;;
6197;SDS011;3132;42.622;23.328;2022-12-16T08:04:23;122.57;;;28.73;;
6197;SDS011;3132;42.622;23.328;2022-12-16T08:07:07;112.03;;;28.10;;
6197;SDS011;3132;42.622;23.328;2022-12-16T08:09:51;56.73;;;26.20;;
6197;SDS011;3132;42.622;23.328;2022-12-16T08:12:35;92.20;;;26.03;;
6197;SDS011;3132;42.622;23.328;2022-12-16T08:15:19;89.30;;;26.83;;
6197;SDS011;3132;42.622;23.328;2022-12-16T08:18:02;62.17;;;23.13;;
6197;SDS011;3132;42.622;23.328;2022-12-16T08:20:46;78.27;;;25.20;;
6197;SDS011;3132;42.622;23.328;2022-12-16T08:23:30;105.33;;;24.60;;
6197;SDS011;3132;42.622;23.328;2022-12-16T08:26:14;89.20;;;27.03;;
6197;SDS011;3132;42.622;23.328;2022-12-16T08:28:58;85.87;;;25.80;;
6197;SDS011;3132;42.622;23.328;2022-12-16T08:31:42;62.90;;;24.47;;
6197;SDS011;3132;42.622;23.328;2022-12-16T08:34:26;65.93;;;26.50;;
6197;SDS011;3132;42.622;23.328;2022-12-16T08:37:10;111.03;;;26.30;;
6197;SDS011;3132;42.622;23.328;2022-12-16T08:39:54;94.10;;;25.50;;
6197;SDS011;3132;42.622;23.328;2022-12-16T08:42:38;117.10;;;27.50;;
6197;SDS011;3132;42.622;23.328;2022-12-16T08:45:22;78.30;;;26.57;;
6197;SDS011;3132;42.622;23.328;2022-12-16T08:48:06;157.03;;;28.33;;
6197;SDS011;3132;42.622;23.328;2022-12-16T08:50:50;129.03;;;29.63;;
6197;SDS011;3132;42.622;23.328;2022-12-16T08:53:36;174.17;;;28.47;;
6197;SDS011;3132;42.622;23.328;2022-12-16T08:56:20;78.10;;;26.47;;
6197;SDS011;3132;42.622;23.328;2022-12-16T08:59:04;86.30;;;26.40;;
6197;SDS011;3132;42.622;23.328;2022-12-16T09:01:48;171.13;;;29.90;;
6197;SDS011;3132;42.622;23.328;2022-12-16T09:04:32;102.50;;;28.47;;
6197;SDS011;3132;42.622;23.328;2022-12-16T09:07:16;111.17;;;30.63;;
6197;SDS011;3132;42.622;23.328;2022-12-16T09:10:01;75.03;;;26.83;;
6197;SDS011;3132;42.622;23.328;2022-12-16T09:12:46;59.87;;;27.70;;
6197;SDS011;3132;42.622;23.328;2022-12-16T09:15:30;44.23;;;26.90;;
6197;SDS011;3132;42.622;23.328;2022-12-16T09:18:13;42.97;;;29.10;;
6197;SDS011;3132;42.622;23.328;2022-12-16T09:20:57;49.07;;;27.83;;
6197;SDS011;3132;42.622;23.328;2022-12-16T09:23:41;43.60;;;26.47;;
6197;SDS011;3132;42.622;23.328;2022-12-16T09:26:26;47.90;;;28.23;;
6197;SDS011;3132;42.622;23.328;2022-12-16T09:29:11;52.67;;;29.93;;
6197;SDS011;3132;42.622;23.328;2022-12-16T09:31:55;47.87;;;28.93;;
6197;SDS011;3132;42.622;23.328;2022-12-16T09:34:38;46.57;;;29.10;;
6197;SDS011;3132;42.622;23.328;2022-12-16T09:37:22;55.47;;;31.93;;
6197;SDS011;3132;42.622;23.328;2022-12-16T09:40:08;48.77;;;31.13;;
6197;SDS011;3132;42.622;23.328;2022-12-16T09:48:50;43.37;;;28.13;;
6197;SDS011;3132;42.622;23.328;2022-12-16T09:51:41;41.43;;;26.30;;
6197;SDS011;3132;42.622;23.328;2022-12-16T09:54:27;49.77;;;27.80;;
6197;SDS011;3132;42.622;23.328;2022-12-16T09:57:17;43.00;;;26.57;;
6197;SDS011;3132;42.622;23.328;2022-12-16T10:00:18;48.30;;;28.57;;
6197;SDS011;3132;42.622;23.328;2022-12-16T10:03:07;43.77;;;27.17;;
6197;SDS011;3132;42.622;23.328;2022-12-16T10:06:13;42.80;;;27.43;;
6197;SDS011;3132;42.622;23.328;2022-12-16T10:15:28;49.70;;;30.00;;
6197;SDS011;3132;42.622;23.328;2022-12-16T10:18:28;52.43;;;31.47;;
6197;SDS011;3132;42.622;23.328;2022-12-16T10:31:11;50.43;;;29.63;;
6197;SDS011;3132;42.622;23.328;2022-12-16T10:33:56;52.73;;;30.87;;
6197;SDS011;3132;42.622;23.328;2022-12-16T10:36:41;53.30;;;32.53;;
6197;SDS011;3132;42.622;23.328;2022-12-16T10:39:30;58.43;;;32.63;;
6197;SDS011;3132;42.622;23.328;2022-12-16T10:42:29;56.50;;;33.37;;
6197;SDS011;3132;42.622;23.328;2022-12-16T10:48:09;59.47;;;32.67;;
6197;SDS011;3132;42.622;23.328;2022-12-16T10:50:54;52.53;;;32.70;;
6197;SDS011;3132;42.622;23.328;2022-12-16T10:53:38;65.73;;;35.10;;
6197;SDS011;3132;42.622;23.328;2022-12-16T10:59:40;61.13;;;33.60;;
6197;SDS011;3132;42.622;23.328;2022-12-16T11:02:26;57.93;;;36.07;;
6197;SDS011;3132;42.622;23.328;2022-12-16T11:05:31;62.10;;;36.30;;
6197;SDS011;3132;42.622;23.328;2022-12-16T11:08:24;59.40;;;35.43;;
6197;SDS011;3132;42.622;23.328;2022-12-16T11:11:23;57.67;;;35.43;;
6197;SDS011;3132;42.622;23.328;2022-12-16T11:17:21;57.83;;;35.00;;
6197;SDS011;3132;42.622;23.328;2022-12-16T11:20:18;52.20;;;31.93;;
6197;SDS011;3132;42.622;23.328;2022-12-16T11:26:18;43.33;;;31.33;;
6197;SDS011;3132;42.622;23.328;2022-12-16T11:29:16;54.60;;;34.40;;
6197;SDS011;3132;42.622;23.328;2022-12-16T11:35:11;65.70;;;39.07;;
6197;SDS011;3132;42.622;23.328;2022-12-16T11:37:58;69.60;;;39.13;;
6197;SDS011;3132;42.622;23.328;2022-12-16T11:40:44;69.33;;;39.13;;
6197;SDS011;3132;42.622;23.328;2022-12-16T11:43:35;70.07;;;40.47;;
6197;SDS011;3132;42.622;23.328;2022-12-16T11:46:26;70.60;;;38.27;;
6197;SDS011;3132;42.622;23.328;2022-12-16T11:49:13;61.27;;;37.23;;
6197;SDS011;3132;42.622;23.328;2022-12-16T11:52:02;66.70;;;39.27;;
6197;SDS011;3132;42.622;23.328;2022-12-16T11:55:00;72.77;;;40.10;;
6197;SDS011;3132;42.622;23.328;2022-12-16T11:57:53;68.93;;;40.57;;
6197;SDS011;3132;42.622;23.328;2022-12-16T12:00:51;63.63;;;36.67;;
6197;SDS011;3132;42.622;23.328;2022-12-16T12:03:45;61.40;;;37.97;;
6197;SDS011;3132;42.622;23.328;2022-12-16T12:06:40;64.33;;;39.70;;
6197;SDS011;3132;42.622;23.328;2022-12-16T12:09:28;61.60;;;36.63;;
6197;SDS011;3132;42.622;23.328;2022-12-16T12:12:23;57.47;;;32.60;;
6197;SDS011;3132;42.622;23.328;2022-12-16T12:21:48;24.93;;;17.90;;
6197;SDS011;3132;42.622;23.328;2022-12-16T12:30:52;22.30;;;16.73;;
6197;SDS011;3132;42.622;23.328;2022-12-16T12:34:02;18.77;;;15.80;;
6197;SDS011;3132;42.622;23.328;2022-12-16T12:37:07;17.17;;;15.37;;
6197;SDS011;3132;42.622;23.328;2022-12-16T12:40:08;16.07;;;14.57;;
6197;SDS011;3132;42.622;23.328;2022-12-16T12:43:24;15.90;;;14.33;;
6197;SDS011;3132;42.622;23.328;2022-12-16T12:46:25;15.10;;;13.77;;
6197;SDS011;3132;42.622;23.328;2022-12-16T12:49:22;14.90;;;13.17;;
6197;SDS011;3132;42.622;23.328;2022-12-16T12:58:18;18.00;;;15.20;;
6197;SDS011;3132;42.622;23.328;2022-12-16T13:01:03;16.60;;;14.97;;
6197;SDS011;3132;42.622;23.328;2022-12-16T13:03:52;16.27;;;14.63;;
6197;SDS011;3132;42.622;23.328;2022-12-16T13:06:37;16.30;;;14.60;;
6197;SDS011;3132;42.622;23.328;2022-12-16T13:14:54;16.57;;;14.83;;
6197;SDS011;3132;42.622;23.328;2022-12-16T13:20:47;17.50;;;15.47;;
6197;SDS011;3132;42.622;23.328;2022-12-16T13:23:36;22.07;;;16.70;;
6197;SDS011;3132;42.622;23.328;2022-12-16T13:26:22;15.87;;;14.27;;
6197;SDS011;3132;42.622;23.328;2022-12-16T13:43:49;9.30;;;8.40;;
6197;SDS011;3132;42.622;23.328;2022-12-16T13:46:41;8.47;;;8.13;;
6197;SDS011;3132;42.622;23.328;2022-12-16T13:52:26;8.93;;;8.00;;
6197;SDS011;3132;42.622;23.328;2022-12-16T13:55:28;8.10;;;7.70;;
6197;SDS011;3132;42.622;23.328;2022-12-16T13:58:18;8.40;;;8.00;;
6197;SDS011;3132;42.622;23.328;2022-12-16T14:01:11;8.23;;;7.83;;
6197;SDS011;3132;42.622;23.328;2022-12-16T14:04:09;10.30;;;9.53;;
6197;SDS011;3132;42.622;23.328;2022-12-16T14:06:59;12.63;;;11.40;;
6197;SDS011;3132;42.622;23.328;2022-12-16T14:09:46;12.93;;;11.77;;
6197;SDS011;3132;42.622;23.328;2022-12-16T14:15:34;14.40;;;13.20;;
6197;SDS011;3132;42.622;23.328;2022-12-16T14:21:23;16.40;;;14.30;;
6197;SDS011;3132;42.622;23.328;2022-12-16T14:24:18;16.03;;;14.40;;
6197;SDS011;3132;42.622;23.328;2022-12-16T14:27:17;15.37;;;13.67;;
6197;SDS011;3132;42.622;23.328;2022-12-16T14:30:10;15.93;;;14.43;;
6197;SDS011;3132;42.622;23.328;2022-12-16T14:32:59;17.17;;;15.20;;
6197;SDS011;3132;42.622;23.328;2022-12-16T14:35:49;14.40;;;13.30;;
6197;SDS011;3132;42.622;23.328;2022-12-16T14:38:36;14.30;;;13.20;;
6197;SDS011;3132;42.622;23.328;2022-12-16T14:41:20;13.97;;;12.67;;
6197;SDS011;3132;42.622;23.328;2022-12-16T14:44:19;13.87;;;12.77;;
6197;SDS011;3132;42.622;23.328;2022-12-16T14:47:05;14.03;;;13.03;;
6197;SDS011;3132;42.622;23.328;2022-12-16T14:53:12;18.43;;;14.57;;
6197;SDS011;3132;42.622;23.328;2022-12-16T14:56:08;11.80;;;11.00;;
6197;SDS011;3132;42.622;23.328;2022-12-16T14:59:18;10.10;;;9.33;;
6197;SDS011;3132;42.622;23.328;2022-12-16T15:02:13;10.37;;;9.37;;
6197;SDS011;3132;42.622;23.328;2022-12-16T15:05:10;9.07;;;8.67;;
6197;SDS011;3132;42.622;23.328;2022-12-16T15:07:54;8.13;;;7.83;;
6197;SDS011;3132;42.622;23.328;2022-12-16T15:10:39;8.60;;;8.10;;
6197;SDS011;3132;42.622;23.328;2022-12-16T15:13:23;8.87;;;8.37;;
6197;SDS011;3132;42.622;23.328;2022-12-16T15:16:10;8.83;;;8.30;;
6197;SDS011;3132;42.622;23.328;2022-12-16T15:19:00;9.47;;;8.83;;
6197;SDS011;3132;42.622;23.328;2022-12-16T15:21:45;9.30;;;8.80;;
6197;SDS011;3132;42.622;23.328;2022-12-16T15:24:32;8.50;;;8.10;;
6197;SDS011;3132;42.622;23.328;2022-12-16T15:33:26;10.57;;;9.80;;
6197;SDS011;3132;42.622;23.328;2022-12-16T15:36:30;7.97;;;7.67;;
6197;SDS011;3132;42.622;23.328;2022-12-16T15:39:18;8.43;;;7.83;;
6197;SDS011;3132;42.622;23.328;2022-12-16T15:42:18;9.63;;;8.83;;
6197;SDS011;3132;42.622;23.328;2022-12-16T15:45:04;9.30;;;8.60;;
6197;SDS011;3132;42.622;23.328;2022-12-16T15:47:59;9.80;;;8.80;;
6197;SDS011;3132;42.622;23.328;2022-12-16T15:51:01;8.60;;;8.20;;
6197;SDS011;3132;42.622;23.328;2022-12-16T15:53:44;9.20;;;8.57;;
6197;SDS011;3132;42.622;23.328;2022-12-16T15:56:42;9.37;;;8.77;;
6197;SDS011;3132;42.622;23.328;2022-12-16T15:59:28;9.33;;;8.80;;
6197;SDS011;3132;42.622;23.328;2022-12-16T16:02:20;8.90;;;8.33;;
6197;SDS011;3132;42.622;23.328;2022-12-16T16:05:17;9.00;;;8.57;;
6197;SDS011;3132;42.622;23.328;2022-12-16T16:08:03;8.57;;;8.17;;
6197;SDS011;3132;42.622;23.328;2022-12-16T16:10:48;9.00;;;8.60;;
6197;SDS011;3132;42.622;23.328;2022-12-16T16:13:32;9.07;;;8.50;;
6197;SDS011;3132;42.622;23.328;2022-12-16T16:16:16;9.30;;;8.80;;
6197;SDS011;3132;42.622;23.328;2022-12-16T16:19:00;9.10;;;8.43;;
6197;SDS011;3132;42.622;23.328;2022-12-16T16:21:45;14.00;;;9.60;;
6197;SDS011;3132;42.622;23.328;2022-12-16T16:24:29;9.17;;;8.63;;
6197;SDS011;3132;42.622;23.328;2022-12-16T16:27:14;9.20;;;8.30;;
6197;SDS011;3132;42.622;23.328;2022-12-16T16:29:58;8.60;;;8.20;;
6197;SDS011;3132;42.622;23.328;2022-12-16T16:32:43;9.73;;;9.23;;
6197;SDS011;3132;42.622;23.328;2022-12-16T16:35:34;9.13;;;8.53;;
6197;SDS011;3132;42.622;23.328;2022-12-16T16:38:17;9.07;;;8.67;;
6197;SDS011;3132;42.622;23.328;2022-12-16T16:41:02;9.20;;;8.50;;
6197;SDS011;3132;42.622;23.328;2022-12-16T16:43:46;9.13;;;8.50;;
6197;SDS011;3132;42.622;23.328;2022-12-16T16:46:39;8.87;;;8.37;;
6197;SDS011;3132;42.622;23.328;2022-12-16T16:49:28;8.63;;;8.30;;
6197;SDS011;3132;42.622;23.328;2022-12-16T16:52:27;10.23;;;9.57;;
6197;SDS011;3132;42.622;23.328;2022-12-16T16:55:21;8.87;;;8.27;;
6197;SDS011;3132;42.622;23.328;2022-12-16T16:58:10;9.73;;;9.07;;
6197;SDS011;3132;42.622;23.328;2022-12-16T17:01:10;8.73;;;8.13;;
6197;SDS011;3132;42.622;23.328;2022-12-16T17:03:55;9.37;;;8.87;;
6197;SDS011;3132;42.622;23.328;2022-12-16T17:06:39;9.47;;;8.63;;
6197;SDS011;3132;42.622;23.328;2022-12-16T17:09:23;8.80;;;8.30;;
6197;SDS011;3132;42.622;23.328;2022-12-16T17:12:22;8.60;;;8.20;;
6197;SDS011;3132;42.622;23.328;2022-12-16T17:15:24;9.00;;;8.50;;
6197;SDS011;3132;42.622;23.328;2022-12-16T17:18:14;10.13;;;9.37;;
6197;SDS011;3132;42.622;23.328;2022-12-16T17:20:59;9.10;;;8.60;;
6197;SDS011;3132;42.622;23.328;2022-12-16T17:23:43;8.70;;;8.20;;
6197;SDS011;3132;42.622;23.328;2022-12-16T17:26:27;8.90;;;8.50;;
6197;SDS011;3132;42.622;23.328;2022-12-16T17:29:16;8.30;;;7.80;;
6197;SDS011;3132;42.622;23.328;2022-12-16T17:32:02;9.10;;;8.50;;
6197;SDS011;3132;42.622;23.328;2022-12-16T17:34:46;9.13;;;8.50;;
6197;SDS011;3132;42.622;23.328;2022-12-16T17:37:30;8.70;;;8.30;;
6197;SDS011;3132;42.622;23.328;2022-12-16T17:40:14;9.13;;;8.50;;
6197;SDS011;3132;42.622;23.328;2022-12-16T17:42:58;9.20;;;8.70;;
6197;SDS011;3132;42.622;23.328;2022-12-16T17:45:42;9.07;;;8.60;;
6197;SDS011;3132;42.622;23.328;2022-12-16T17:48:26;8.90;;;8.40;;
6197;SDS011;3132;42.622;23.328;2022-12-16T17:51:09;8.53;;;8.07;;
6197;SDS011;3132;42.622;23.328;2022-12-16T17:54:13;7.93;;;7.60;;
6197;SDS011;3132;42.622;23.328;2022-12-16T17:56:57;9.47;;;8.97;;
6197;SDS011;3132;42.622;23.328;2022-12-16T17:59:41;8.97;;;8.50;;
6197;SDS011;3132;42.622;23.328;2022-12-16T18:02:27;9.17;;;8.67;;
6197;SDS011;3132;42.622;23.328;2022-12-16T18:05:10;8.93;;;8.40;;
6197;SDS011;3132;42.622;23.328;2022-12-16T18:07:54;9.73;;;9.23;;
6197;SDS011;3132;42.622;23.328;2022-12-16T18:10:39;12.23;;;11.43;;
6197;SDS011;3132;42.622;23.328;2022-12-16T18:13:22;12.03;;;11.10;;